createdAt,value
2022-11-15T00:00:58.454Z,10.90
2022-11-15T00:03:27.283Z,11.60
2022-11-15T00:05:54.552Z,12.63
2022-11-15T00:08:21.499Z,10.35
2022-11-15T00:11:02.260Z,12.23
2022-11-15T00:13:30.291Z,12.20
2022-11-15T00:16:01.780Z,11.00
2022-11-15T00:18:29.570Z,10.48
2022-11-15T00:20:57.240Z,11.52
2022-11-15T00:23:24.169Z,9.98
2022-11-15T00:25:58.909Z,11.00
2022-11-15T00:28:26.347Z,10.88
2022-11-15T00:30:53.733Z,12.80
2022-11-15T00:33:20.660Z,10.80
2022-11-15T00:35:47.583Z,9.95
2022-11-15T00:38:14.537Z,9.45
2022-11-15T00:40:41.426Z,10.68
2022-11-15T00:43:08.215Z,11.25
2022-11-15T00:45:35.205Z,9.63
2022-11-15T00:48:02.047Z,10.27
2022-11-15T00:50:28.977Z,12.40
2022-11-15T00:52:55.819Z,11.20
2022-11-15T00:55:22.596Z,12.63
2022-11-15T00:57:49.521Z,13.95
2022-11-15T01:00:16.758Z,13.77
2022-11-15T01:02:43.523Z,10.50
2022-11-15T01:05:10.427Z,10.70
2022-11-15T01:07:37.367Z,10.07
2022-11-15T01:10:05.491Z,12.52
2022-11-15T01:12:32.952Z,14.52
2022-11-15T01:14:59.787Z,9.23
2022-11-15T01:17:26.689Z,11.27
2022-11-15T01:19:53.620Z,10.90
2022-11-15T01:22:20.480Z,11.10
2022-11-15T01:24:47.352Z,11.70
2022-11-15T01:27:14.181Z,11.07
2022-11-15T01:29:41.003Z,13.85
2022-11-15T01:32:07.814Z,9.80
2022-11-15T01:34:34.994Z,8.88
2022-11-15T01:37:02.046Z,9.93
2022-11-15T01:39:28.946Z,9.23
2022-11-15T01:41:56.092Z,10.98
2022-11-15T01:44:32.310Z,9.95
2022-11-15T01:47:02.666Z,8.57
2022-11-15T01:49:33.440Z,9.80
2022-11-15T01:52:02.143Z,9.30
2022-11-15T01:54:29.306Z,10.07
2022-11-15T01:57:16.423Z,9.20
2022-11-15T01:59:45.967Z,9.75
2022-11-15T02:02:13.275Z,10.02
2022-11-15T02:04:57.988Z,8.57
2022-11-15T02:07:24.936Z,9.05
2022-11-15T02:09:52.754Z,8.25
2022-11-15T02:12:22.315Z,11.90
2022-11-15T02:14:54.423Z,12.02
2022-11-15T02:17:37.187Z,11.02
2022-11-15T02:20:35.556Z,9.35
2022-11-15T02:23:46.878Z,10.85
2022-11-15T02:26:19.805Z,9.70
2022-11-15T02:29:09.905Z,10.18
2022-11-15T02:32:03.522Z,8.05
2022-11-15T02:34:52.522Z,11.43
2022-11-15T02:37:28.479Z,10.15
2022-11-15T02:40:07.433Z,8.77
2022-11-15T02:42:56.878Z,9.90
2022-11-15T02:45:40.412Z,13.27
2022-11-15T02:48:10.274Z,8.70
2022-11-15T02:50:37.378Z,6.80
2022-11-15T02:53:04.330Z,9.23
2022-11-15T02:55:31.175Z,9.13
2022-11-15T02:57:58.012Z,9.40
2022-11-15T03:00:25.207Z,8.75
2022-11-15T03:03:05.387Z,9.55
2022-11-15T03:05:50.732Z,9.07
2022-11-15T03:08:26.895Z,13.13
2022-11-15T03:11:15.113Z,9.40
2022-11-15T03:13:57.870Z,9.10
2022-11-15T03:16:37.385Z,9.60
2022-11-15T03:19:15.660Z,9.90
2022-11-15T03:21:42.965Z,8.32
2022-11-15T03:24:11.706Z,9.30
2022-11-15T03:26:41.628Z,9.40
2022-11-15T03:29:32.756Z,8.45
2022-11-15T03:32:09.031Z,8.00
2022-11-15T03:35:01.685Z,7.60
2022-11-15T03:38:07.778Z,10.05
2022-11-15T03:40:50.377Z,8.48
2022-11-15T03:43:37.644Z,7.97
2022-11-15T03:46:24.569Z,7.00
2022-11-15T03:48:57.388Z,9.02
2022-11-15T03:51:24.194Z,10.07
2022-11-15T03:53:51.598Z,8.73
2022-11-15T03:56:18.392Z,9.93
2022-11-15T03:58:45.185Z,9.02
2022-11-15T04:01:12.073Z,11.45
2022-11-15T04:03:39.015Z,13.00
2022-11-15T04:06:06.160Z,12.27
2022-11-15T04:08:33.034Z,11.57
2022-11-15T04:11:02.285Z,9.05
2022-11-15T04:13:29.693Z,9.20
2022-11-15T04:15:56.816Z,10.75
2022-11-15T04:18:23.698Z,7.90
2022-11-15T04:21:08.947Z,9.18
2022-11-15T04:23:54.211Z,9.48
2022-11-15T04:26:23.519Z,8.15
2022-11-15T04:29:08.696Z,9.43
2022-11-15T04:31:35.746Z,9.68
2022-11-15T04:34:02.532Z,11.52
2022-11-15T04:36:47.890Z,9.75
2022-11-15T04:39:14.794Z,9.90
2022-11-15T04:41:41.688Z,9.13
2022-11-15T04:44:08.675Z,10.95
2022-11-15T04:46:35.493Z,12.15
2022-11-15T04:49:02.390Z,16.27
2022-11-15T04:51:29.227Z,19.95
2022-11-15T04:53:56.065Z,17.75
2022-11-15T04:56:22.847Z,16.98
2022-11-15T04:58:52.677Z,13.88
2022-11-15T05:01:19.576Z,13.57
2022-11-15T05:04:04.873Z,12.32
2022-11-15T05:06:32.150Z,8.55
2022-11-15T05:08:59.342Z,9.05
2022-11-15T05:11:27.852Z,8.95
2022-11-15T05:13:54.871Z,7.65
2022-11-15T05:16:21.741Z,8.00
2022-11-15T05:18:52.578Z,9.48
2022-11-15T05:21:19.927Z,8.65
2022-11-15T05:23:46.884Z,8.20
2022-11-15T05:26:15.851Z,9.93
2022-11-15T05:28:42.803Z,9.25
2022-11-15T05:31:15.289Z,7.68
2022-11-15T05:33:43.494Z,8.60
2022-11-15T05:36:36.648Z,8.52
2022-11-15T05:39:05.911Z,7.25
2022-11-15T05:41:41.462Z,8.38
2022-11-15T05:44:11.281Z,8.60
2022-11-15T05:46:40.408Z,8.50
2022-11-15T05:49:10.273Z,8.55
2022-11-15T05:51:37.272Z,8.07
2022-11-15T05:54:04.385Z,9.60
2022-11-15T05:56:31.557Z,11.20
2022-11-15T05:59:00.171Z,17.50
2022-11-15T06:01:28.754Z,14.13
2022-11-15T06:03:55.877Z,18.05
2022-11-15T06:06:22.815Z,15.93
2022-11-15T06:08:49.633Z,16.98
2022-11-15T06:11:16.547Z,15.93
2022-11-15T06:13:43.385Z,17.23
2022-11-15T06:16:10.275Z,19.00
2022-11-15T06:18:37.744Z,14.30
2022-11-15T06:21:05.499Z,19.63
2022-11-15T06:23:36.246Z,17.23
2022-11-15T06:26:03.903Z,21.60
2022-11-15T06:28:32.823Z,16.95
2022-11-15T06:31:07.461Z,14.15
2022-11-15T06:33:34.741Z,11.35
2022-11-15T06:36:07.181Z,8.50
2022-11-15T06:41:05.984Z,10.35
2022-11-15T06:43:33.318Z,10.10
2022-11-15T06:46:01.543Z,11.65
2022-11-15T06:48:29.287Z,11.85
2022-11-15T06:51:00.926Z,15.13
2022-11-15T06:53:28.617Z,13.93
2022-11-15T06:56:00.619Z,11.50
2022-11-15T06:58:27.845Z,13.15
2022-11-15T07:00:55.306Z,13.95
2022-11-15T07:03:22.184Z,15.15
2022-11-15T07:05:54.584Z,16.30
2022-11-15T07:08:22.719Z,21.52
2022-11-15T07:10:49.751Z,15.48
2022-11-15T07:13:16.881Z,15.63
2022-11-15T07:15:43.781Z,18.83
2022-11-15T07:18:10.791Z,13.68
2022-11-15T07:20:37.761Z,15.90
2022-11-15T07:23:06.055Z,15.52
2022-11-15T07:25:33.402Z,15.60
2022-11-15T07:28:01.351Z,12.35
2022-11-15T07:30:29.219Z,13.27
2022-11-15T07:32:57.691Z,12.32
2022-11-15T07:35:25.629Z,16.67
2022-11-15T07:38:01.053Z,14.38
2022-11-15T07:40:29.515Z,14.48
2022-11-15T07:43:07.301Z,14.20
2022-11-15T07:45:37.023Z,13.63
2022-11-15T07:48:04.061Z,14.25
2022-11-15T07:50:32.140Z,16.50
2022-11-15T07:53:00.964Z,17.77
2022-11-15T07:55:30.283Z,15.60
2022-11-15T07:58:05.054Z,16.70
2022-11-15T08:00:32.209Z,19.70
2022-11-15T08:03:09.986Z,15.35
2022-11-15T08:05:38.754Z,16.13
2022-11-15T08:08:06.592Z,16.42
2022-11-15T08:10:40.305Z,15.50
2022-11-15T08:13:10.082Z,16.95
2022-11-15T08:15:37.878Z,17.13
2022-11-15T08:18:10.688Z,16.30
2022-11-15T08:20:37.651Z,17.50
2022-11-15T08:23:05.669Z,14.45
2022-11-15T08:25:34.329Z,12.88
2022-11-15T08:28:04.135Z,12.65
2022-11-15T08:30:31.851Z,15.90
2022-11-15T08:32:59.777Z,15.13
2022-11-15T08:35:29.221Z,13.40
2022-11-15T08:37:56.425Z,11.82
2022-11-15T08:40:23.878Z,13.90
2022-11-15T08:42:50.726Z,14.88
2022-11-15T08:45:17.599Z,16.63
2022-11-15T08:47:47.351Z,14.38
2022-11-15T08:52:43.957Z,13.48
2022-11-15T08:55:10.940Z,15.05
2022-11-15T08:57:37.821Z,14.07
2022-11-15T09:00:05.556Z,12.70
2022-11-15T09:02:32.399Z,12.68
2022-11-15T09:04:59.540Z,11.77
2022-11-15T09:07:26.469Z,11.88
2022-11-15T09:09:53.323Z,11.85
2022-11-15T09:12:20.230Z,13.40
2022-11-15T09:14:47.114Z,10.30
2022-11-15T09:17:13.909Z,10.95
2022-11-15T09:19:40.856Z,11.55
2022-11-15T09:22:08.891Z,11.80
2022-11-15T09:24:36.493Z,10.13
2022-11-15T09:27:03.468Z,10.93
2022-11-15T09:29:30.427Z,11.35
2022-11-15T09:31:57.269Z,10.00
2022-11-15T09:34:24.106Z,11.20
2022-11-15T09:36:51.097Z,9.98
2022-11-15T09:39:17.997Z,12.52
2022-11-15T09:41:56.947Z,9.77
2022-11-15T09:44:48.229Z,8.00
2022-11-15T09:47:37.837Z,9.57
2022-11-15T09:50:12.143Z,10.85
2022-11-15T09:52:42.564Z,6.55
2022-11-15T09:55:14.650Z,6.63
2022-11-15T09:58:06.722Z,6.90
2022-11-15T10:00:47.485Z,7.32
2022-11-15T10:03:19.229Z,5.43
2022-11-15T10:05:48.716Z,6.65
2022-11-15T10:08:43.425Z,4.97
2022-11-15T10:11:42.250Z,5.78
2022-11-15T10:14:24.820Z,5.72
2022-11-15T10:17:03.728Z,5.00
2022-11-15T10:20:07.529Z,5.88
2022-11-15T10:22:51.636Z,5.57
2022-11-15T10:25:20.788Z,5.10
2022-11-15T10:27:55.375Z,6.10
2022-11-15T10:30:23.090Z,5.78
2022-11-15T10:32:50.657Z,7.30
2022-11-15T10:35:31.156Z,5.60
2022-11-15T10:38:10.653Z,5.63
2022-11-15T10:40:39.208Z,8.23
2022-11-15T10:43:10.432Z,6.32
2022-11-15T10:45:39.268Z,7.57
2022-11-15T10:48:15.522Z,4.28
2022-11-15T10:50:44.718Z,4.70
2022-11-15T10:53:33.957Z,3.40
2022-11-15T10:56:05.207Z,5.63
2022-11-15T10:58:50.985Z,5.40
2022-11-15T11:01:24.772Z,3.53
2022-11-15T11:04:09.571Z,4.18
2022-11-15T11:06:57.659Z,4.55
2022-11-15T11:09:38.480Z,4.85
2022-11-15T11:12:10.971Z,5.03
2022-11-15T11:14:40.247Z,4.50
2022-11-15T11:17:24.418Z,4.47
2022-11-15T11:20:02.750Z,5.38
2022-11-15T11:22:43.434Z,3.92
2022-11-15T11:25:25.857Z,4.63
2022-11-15T11:28:19.398Z,5.00
2022-11-15T11:31:12.433Z,5.53
2022-11-15T11:33:46.145Z,3.90
2022-11-15T11:36:28.136Z,4.28
2022-11-15T11:39:18.157Z,6.07
2022-11-15T11:41:54.316Z,5.40
2022-11-15T11:44:34.027Z,3.45
2022-11-15T11:47:21.891Z,4.90
2022-11-15T11:50:15.019Z,4.60
2022-11-15T11:52:50.901Z,3.00
2022-11-15T11:55:45.322Z,3.80
2022-11-15T11:58:23.445Z,3.83
2022-11-15T12:01:16.126Z,4.93
2022-11-15T12:03:51.975Z,4.53
2022-11-15T12:06:41.554Z,5.07
2022-11-15T12:09:21.848Z,4.65
2022-11-15T12:12:13.690Z,3.55
2022-11-15T12:14:50.952Z,5.97
2022-11-15T12:17:21.853Z,4.70
2022-11-15T12:19:49.058Z,4.40
2022-11-15T12:22:45.041Z,3.95
2022-11-15T12:25:51.573Z,5.65
2022-11-15T12:29:05.823Z,4.78
2022-11-15T12:31:44.832Z,4.53
2022-11-15T12:34:23.870Z,3.65
2022-11-15T12:36:52.210Z,3.70
2022-11-15T12:39:20.365Z,4.32
2022-11-15T12:41:52.976Z,3.13
2022-11-15T12:44:32.129Z,5.32
2022-11-15T12:46:58.987Z,5.03
2022-11-15T12:49:28.951Z,3.58
2022-11-15T12:51:58.775Z,4.07
2022-11-15T12:54:25.645Z,4.20
2022-11-15T12:57:04.788Z,4.72
2022-11-15T12:59:50.578Z,5.07
2022-11-15T13:02:23.245Z,3.42
2022-11-15T13:04:52.142Z,6.30
2022-11-15T13:07:43.234Z,3.95
2022-11-15T13:10:13.256Z,3.78
2022-11-15T13:12:46.012Z,3.30
2022-11-15T13:15:12.871Z,3.88
2022-11-15T13:17:47.982Z,3.05
2022-11-15T13:20:17.489Z,4.20
2022-11-15T13:23:05.387Z,3.33
2022-11-15T13:25:56.844Z,4.20
2022-11-15T13:28:45.288Z,4.50
2022-11-15T13:31:27.230Z,4.15
2022-11-15T13:33:57.818Z,5.35
2022-11-15T13:36:27.750Z,5.07
2022-11-15T13:39:01.145Z,4.28
2022-11-15T13:41:30.872Z,3.83
2022-11-15T13:43:59.066Z,3.95
2022-11-15T13:46:36.109Z,3.78
2022-11-15T13:49:05.611Z,4.05
2022-11-15T13:51:49.038Z,4.75
2022-11-15T13:54:30.926Z,3.70
2022-11-15T13:57:11.632Z,4.05
2022-11-15T13:59:47.553Z,3.97
2022-11-15T14:02:21.490Z,4.47
2022-11-15T14:04:56.054Z,4.90
2022-11-15T14:07:26.148Z,4.78
2022-11-15T14:09:53.671Z,4.82
2022-11-15T14:12:31.015Z,6.68
2022-11-15T14:14:59.679Z,5.75
2022-11-15T14:17:29.485Z,3.75
2022-11-15T14:19:57.649Z,3.95
2022-11-15T14:22:30.008Z,6.47
2022-11-15T14:25:20.133Z,4.53
2022-11-15T14:28:14.191Z,3.90
2022-11-15T14:30:42.445Z,3.63
2022-11-15T14:33:30.244Z,6.28
2022-11-15T14:35:59.014Z,5.45
2022-11-15T14:38:26.840Z,4.43
2022-11-15T14:40:55.042Z,4.30
2022-11-15T14:43:21.918Z,6.45
2022-11-15T14:45:49.002Z,4.10
2022-11-15T14:48:15.891Z,6.30
2022-11-15T14:50:42.899Z,6.63
2022-11-15T14:53:14.495Z,5.53
2022-11-15T14:55:41.561Z,8.45
2022-11-15T14:58:09.121Z,4.63
2022-11-15T15:00:40.702Z,8.40
2022-11-15T15:03:08.484Z,6.00
2022-11-15T15:05:43.964Z,7.43
2022-11-15T15:08:11.744Z,7.22
2022-11-15T15:10:44.491Z,5.55
2022-11-15T15:13:23.679Z,6.10
2022-11-15T15:15:51.991Z,8.07
2022-11-15T15:18:28.577Z,5.20
2022-11-15T15:21:01.175Z,6.57
2022-11-15T15:23:30.268Z,6.22
2022-11-15T15:25:57.592Z,7.10
2022-11-15T15:28:24.434Z,10.65
2022-11-15T15:30:51.320Z,7.47
2022-11-15T15:33:18.127Z,11.68
2022-11-15T15:35:45.340Z,6.50
2022-11-15T15:38:13.580Z,12.05
2022-11-15T15:40:40.543Z,8.98
2022-11-15T15:43:09.966Z,9.25
2022-11-15T15:45:40.467Z,8.13
2022-11-15T15:48:11.974Z,13.00
2022-11-15T15:50:39.473Z,10.80
2022-11-15T15:53:11.629Z,8.60
2022-11-15T15:55:38.924Z,9.85
2022-11-15T15:58:06.545Z,11.85
2022-11-15T16:00:35.128Z,10.80
2022-11-15T16:03:01.978Z,13.98
2022-11-15T16:05:29.090Z,16.42
2022-11-15T16:07:55.938Z,18.23
2022-11-15T16:10:28.618Z,15.38
2022-11-15T16:12:57.164Z,17.48
2022-11-15T16:15:26.746Z,17.33
2022-11-15T16:17:56.026Z,18.98
2022-11-15T16:20:34.460Z,21.63
2022-11-15T16:23:07.548Z,24.65
2022-11-15T16:25:49.138Z,32.50
2022-11-15T16:28:17.805Z,33.22
2022-11-15T16:30:44.837Z,17.55
2022-11-15T16:33:11.693Z,20.42
2022-11-15T16:35:38.587Z,20.17
2022-11-15T16:38:05.435Z,21.20
2022-11-15T16:40:36.055Z,15.75
2022-11-15T16:43:04.523Z,17.15
2022-11-15T16:45:32.063Z,17.38
2022-11-15T16:47:58.963Z,19.20
2022-11-15T16:50:28.489Z,27.05
2022-11-15T16:52:57.486Z,27.05
2022-11-15T16:55:28.094Z,26.05
2022-11-15T16:57:57.970Z,23.70
2022-11-15T17:00:25.755Z,24.98
2022-11-15T17:02:53.374Z,25.25
2022-11-15T17:05:22.467Z,23.02
2022-11-15T17:07:52.392Z,30.98
2022-11-15T17:10:19.418Z,28.73
2022-11-15T17:12:46.390Z,28.48
2022-11-15T17:15:13.842Z,30.35
2022-11-15T17:17:41.352Z,36.03
2022-11-15T17:20:15.372Z,36.22
2022-11-15T17:22:42.510Z,29.75
2022-11-15T17:25:09.972Z,32.15
2022-11-15T17:27:36.930Z,28.95
2022-11-15T17:30:04.508Z,29.95
2022-11-15T17:32:31.378Z,30.25
2022-11-15T17:34:58.266Z,26.65
2022-11-15T17:37:25.105Z,23.83
2022-11-15T17:39:51.921Z,27.67
2022-11-15T17:42:18.874Z,29.70
2022-11-15T17:44:45.775Z,26.95
2022-11-15T17:47:12.594Z,25.73
2022-11-15T17:49:40.913Z,30.92
2022-11-15T17:52:08.099Z,29.27
2022-11-15T17:54:35.211Z,23.85
2022-11-15T17:57:02.035Z,23.30
2022-11-15T17:59:28.987Z,24.80
2022-11-15T18:01:55.785Z,24.58
2022-11-15T18:04:28.174Z,22.10
2022-11-15T18:06:56.520Z,19.85
2022-11-15T18:09:24.807Z,20.50
2022-11-15T18:11:53.542Z,19.27
2022-11-15T18:14:20.831Z,17.73
2022-11-15T18:16:47.648Z,17.75
2022-11-15T18:19:15.253Z,16.75
2022-11-15T18:21:56.825Z,28.20
2022-11-15T18:24:34.888Z,32.72
2022-11-15T18:27:03.736Z,19.92
2022-11-15T18:29:31.043Z,20.70
2022-11-15T18:31:59.038Z,24.67
2022-11-15T18:37:18.751Z,26.45
2022-11-15T18:39:49.665Z,31.67
2022-11-15T18:42:19.466Z,29.15
2022-11-15T18:44:46.418Z,29.15
2022-11-15T18:47:13.513Z,26.40
2022-11-15T18:49:40.361Z,25.40
2022-11-15T18:52:08.472Z,26.88
2022-11-15T18:54:35.384Z,24.85
2022-11-15T18:57:02.314Z,25.95
2022-11-15T18:59:29.716Z,25.35
2022-11-15T19:01:56.969Z,23.77
2022-11-15T19:04:23.942Z,26.50
2022-11-15T19:06:51.456Z,24.05
2022-11-15T19:09:19.375Z,25.17
2022-11-15T19:11:47.645Z,25.35
2022-11-15T19:14:16.469Z,24.75
2022-11-15T19:16:52.240Z,22.38
2022-11-15T19:19:25.020Z,20.42
2022-11-15T19:21:52.504Z,17.92
2022-11-15T19:24:19.904Z,13.77
2022-11-15T19:26:47.167Z,14.05
2022-11-15T19:29:14.261Z,10.68
2022-11-15T19:31:42.145Z,13.35
2022-11-15T19:34:09.589Z,15.88
2022-11-15T19:36:43.717Z,17.67
2022-11-15T19:39:13.335Z,16.30
2022-11-15T19:41:42.857Z,14.60
2022-11-15T19:44:11.261Z,17.17
2022-11-15T19:46:38.699Z,18.83
2022-11-15T19:49:07.902Z,18.42
2022-11-15T19:51:34.954Z,17.40
2022-11-15T19:54:06.773Z,19.70
2022-11-15T19:56:34.874Z,20.50
2022-11-15T19:59:02.254Z,19.25
2022-11-15T20:01:31.837Z,16.67
2022-11-15T20:04:00.289Z,18.98
2022-11-15T20:06:30.308Z,18.85
2022-11-15T20:08:58.086Z,17.40
2022-11-15T20:11:25.897Z,13.95
2022-11-15T20:14:02.181Z,19.27
2022-11-15T20:16:29.339Z,19.85
2022-11-15T20:18:56.194Z,23.17
2022-11-15T20:21:24.075Z,19.42
2022-11-15T20:23:51.836Z,19.60
2022-11-15T20:26:22.168Z,18.35
2022-11-15T20:28:49.457Z,20.75
2022-11-15T20:31:16.980Z,18.35
2022-11-15T20:33:44.338Z,20.08
2022-11-15T20:36:13.720Z,15.77
2022-11-15T20:38:40.829Z,17.58
2022-11-15T20:41:07.917Z,18.60
2022-11-15T20:43:35.020Z,12.95
2022-11-15T20:46:01.979Z,13.15
2022-11-15T20:48:29.188Z,14.32
2022-11-15T20:51:12.800Z,14.05
2022-11-15T20:53:40.598Z,11.35
2022-11-15T20:56:13.532Z,11.13
2022-11-15T20:58:41.067Z,13.20
2022-11-15T21:01:10.807Z,17.30
2022-11-15T21:03:38.163Z,14.55
2022-11-15T21:06:05.331Z,17.33
2022-11-15T21:08:52.566Z,13.40
2022-11-15T21:14:23.407Z,11.75
2022-11-15T21:16:50.420Z,13.00
2022-11-15T21:19:19.062Z,11.07
2022-11-15T21:21:47.588Z,10.13
2022-11-15T21:24:14.531Z,10.32
2022-11-15T21:26:41.518Z,9.98
2022-11-15T21:29:08.465Z,10.63
2022-11-15T21:31:35.373Z,10.23
2022-11-15T21:34:03.173Z,10.55
2022-11-15T21:36:30.571Z,14.55
2022-11-15T21:38:57.526Z,11.63
2022-11-15T21:41:24.353Z,10.90
2022-11-15T21:43:51.260Z,11.70
2022-11-15T21:46:19.224Z,11.90
2022-11-15T21:48:46.140Z,14.13
2022-11-15T21:51:13.324Z,11.88
2022-11-15T21:53:41.003Z,13.98
2022-11-15T21:56:08.340Z,18.02
2022-11-15T21:58:36.194Z,11.60
2022-11-15T22:01:21.973Z,13.00
2022-11-15T22:03:48.992Z,12.48
2022-11-15T22:06:18.267Z,11.73
2022-11-15T22:08:46.425Z,11.70
2022-11-15T22:11:14.524Z,11.18
2022-11-15T22:13:41.674Z,11.80
2022-11-15T22:16:09.353Z,13.82
2022-11-15T22:18:36.753Z,11.32
2022-11-15T22:21:06.636Z,16.00
2022-11-15T22:23:34.512Z,10.85
2022-11-15T22:26:01.681Z,10.93
2022-11-15T22:28:29.566Z,12.55
2022-11-15T22:30:57.533Z,13.57
2022-11-15T22:33:28.372Z,15.55
2022-11-15T22:35:56.269Z,13.65
2022-11-15T22:38:24.249Z,12.70
2022-11-15T22:40:51.674Z,13.32
2022-11-15T22:43:21.602Z,13.73
2022-11-15T22:45:53.252Z,14.07
2022-11-15T22:48:21.721Z,12.30
2022-11-15T22:50:48.766Z,14.10
2022-11-15T22:53:15.625Z,12.50
2022-11-15T22:55:43.119Z,15.55
2022-11-15T22:58:10.488Z,12.52
2022-11-15T23:00:37.478Z,12.23
2022-11-15T23:03:04.448Z,10.23
2022-11-15T23:05:31.385Z,11.90
2022-11-15T23:07:58.279Z,12.55
2022-11-15T23:10:43.579Z,11.10
2022-11-15T23:13:18.996Z,11.73
2022-11-15T23:16:09.419Z,12.93
2022-11-15T23:18:38.629Z,12.90
2022-11-15T23:21:09.696Z,14.13
2022-11-15T23:23:36.802Z,13.93
2022-11-15T23:26:03.703Z,11.88
2022-11-15T23:28:32.926Z,12.73
2022-11-15T23:31:26.183Z,11.88
2022-11-15T23:33:59.365Z,10.35
2022-11-15T23:36:28.561Z,17.67
2022-11-15T23:38:56.709Z,12.70
2022-11-15T23:41:24.488Z,11.55
2022-11-15T23:43:52.332Z,14.50
2022-11-15T23:46:19.440Z,11.10
2022-11-15T23:48:46.618Z,11.55
2022-11-15T23:51:13.515Z,13.90
2022-11-15T23:53:40.548Z,15.25
2022-11-15T23:56:11.903Z,12.05
2022-11-15T23:58:38.866Z,17.02
